Time;durP1;ratioP1;P1;durP2;ratioP2;P2;SDS_P1;SDS_P2;PMS_P1;PMS_P2;Temp;Humidity;BMP_temperature;BMP_pressure;BME280_temperature;BME280_humidity;BME280_pressure;Samples;Min_cycle;Max_cycle;Signal;HPM_P1;HPM_P2
2022/07/29 00:02:04;;;;;;;5.15;3.70;;;;;;;18.59;100.00;98350.20;1649169;85;28102;-87
2022/07/29 00:04:30;;;;;;;7.10;3.75;;;;;;;18.68;100.00;98347.08;1647323;85;28163;-87
2022/07/29 00:06:59;;;;;;;5.22;3.15;;;;;;;18.66;100.00;98351.20;1649166;85;28088;-85
2022/07/29 00:09:27;;;;;;;5.17;3.25;;;;;;;18.67;100.00;98352.03;1649123;86;28091;-86
2022/07/29 00:11:56;;;;;;;5.12;3.17;;;;;;;18.71;100.00;98350.75;1666703;85;28101;-86
2022/07/29 00:14:24;;;;;;;6.17;3.40;;;;;;;18.70;100.00;98354.39;1645332;84;28075;-85
2022/07/29 00:16:55;;;;;;;5.12;3.72;;;;;;;18.72;100.00;98347.91;1657705;84;28513;-85
2022/07/29 00:19:21;;;;;;;6.28;3.10;;;;;;;18.77;100.00;98354.89;1666722;83;28027;-85
2022/07/29 00:21:53;;;;;;;5.03;2.95;;;;;;;18.78;100.00;98353.91;1676195;84;43089;-84
2022/07/29 00:24:19;;;;;;;5.15;3.20;;;;;;;18.63;100.00;98359.98;1694933;82;28161;-86
2022/07/29 00:26:52;;;;;;;4.62;3.20;;;;;;;18.37;100.00;98353.38;1693570;82;28136;-90
2022/07/29 00:29:19;;;;;;;4.65;3.05;;;;;;;18.25;100.00;98354.63;1683309;83;28098;-90
2022/07/29 00:31:45;;;;;;;5.20;3.12;;;;;;;18.01;100.00;98343.88;1689288;83;28136;-86
2022/07/29 00:36:57;;;;;;;5.40;3.50;;;;;;;17.63;100.00;98341.96;1691002;83;28083;-86
2022/07/29 00:39:23;;;;;;;4.90;3.42;;;;;;;17.49;100.00;98343.33;1682550;83;28165;-86
2022/07/29 00:41:55;;;;;;;6.67;3.40;;;;;;;17.42;100.00;98341.42;1684175;84;28084;-86
2022/07/29 00:44:24;;;;;;;7.00;3.40;;;;;;;17.30;100.00;98339.50;1682622;83;28104;-86
2022/07/29 00:46:50;;;;;;;4.17;3.12;;;;;;;17.43;100.00;98342.61;1684967;83;28081;-90
2022/07/29 00:49:16;;;;;;;3.15;2.85;;;;;;;17.63;100.00;98342.45;1682251;83;28149;-90
2022/07/29 00:51:43;;;;;;;5.33;3.25;;;;;;;17.70;100.00;98341.70;1688910;83;28081;-90
2022/07/29 00:54:12;;;;;;;4.67;2.72;;;;;;;17.76;100.00;98342.41;1686586;83;28106;-90
2022/07/29 00:56:42;;;;;;;5.33;3.55;;;;;;;17.82;100.00;98333.84;1683744;83;28095;-91
2022/07/29 00:59:09;;;;;;;7.05;3.33;;;;;;;17.91;100.00;98332.07;1680014;83;28081;-85
2022/07/29 01:01:36;;;;;;;4.75;3.30;;;;;;;17.97;100.00;98329.64;1686530;83;28238;-84
2022/07/29 01:04:05;;;;;;;5.75;3.47;;;;;;;17.97;100.00;98332.29;1694847;83;28165;-90
2022/07/29 01:06:34;;;;;;;3.50;2.95;;;;;;;17.96;100.00;98327.14;1695476;84;28082;-91
2022/07/29 01:09:11;;;;;;;5.42;3.10;;;;;;;17.81;100.00;98326.05;1696029;82;28094;-90
2022/07/29 01:11:40;;;;;;;5.17;3.33;;;;;;;17.53;100.00;98321.34;1696227;82;28178;-84
2022/07/29 01:14:08;;;;;;;7.65;2.98;;;;;;;17.32;100.00;98319.52;1695477;84;28169;-85
2022/07/29 01:16:38;;;;;;;2.77;2.52;;;;;;;17.18;100.00;98322.70;1688172;82;28080;-85
2022/07/29 01:19:34;;;;;;;4.35;3.33;;;;;;;17.10;100.00;98316.84;1672302;84;28182;-89
2022/07/29 01:22:04;;;;;;;3.52;2.95;;;;;;;17.12;100.00;98320.17;1664240;85;28201;-88
2022/07/29 01:24:39;;;;;;;4.35;3.10;;;;;;;17.10;100.00;98326.93;1662331;84;28073;-87
2022/07/29 01:27:18;;;;;;;5.72;3.00;;;;;;;17.04;100.00;98322.73;1668909;85;28189;-88
2022/07/29 01:29:59;;;;;;;3.45;2.98;;;;;;;17.08;100.00;98324.08;1651029;84;28078;-84
2022/07/29 01:32:32;;;;;;;3.75;2.62;;;;;;;17.06;100.00;98325.58;1683877;84;43018;-89
2022/07/29 01:35:05;;;;;;;4.95;3.00;;;;;;;17.03;100.00;98318.41;1671021;84;28066;-86
2022/07/29 01:37:52;;;;;;;5.90;3.02;;;;;;;16.90;100.00;98325.41;1680291;83;28101;-86
2022/07/29 01:40:28;;;;;;;9.10;3.92;;;;;;;16.86;100.00;98324.52;1678528;83;28194;-86
2022/07/29 01:42:57;;;;;;;5.03;3.37;;;;;;;16.75;100.00;98322.91;1630152;85;28017;-85
2022/07/29 01:45:52;;;;;;;4.75;3.10;;;;;;;16.67;100.00;98319.70;1685834;83;28094;-84
2022/07/29 01:48:21;;;;;;;6.30;3.25;;;;;;;16.67;100.00;98316.23;1624652;86;28139;-88
2022/07/29 01:50:57;;;;;;;4.10;3.33;;;;;;;16.67;100.00;98310.95;1617875;85;28075;-87
2022/07/29 01:53:27;;;;;;;5.17;3.52;;;;;;;16.62;100.00;98310.56;1671086;83;28020;-87
2022/07/29 01:56:05;;;;;;;6.03;3.62;;;;;;;16.58;100.00;98310.48;1665988;84;28089;-88
2022/07/29 01:58:33;;;;;;;6.28;3.35;;;;;;;16.57;100.00;98311.46;1666692;84;28035;-87
2022/07/29 02:01:01;;;;;;;4.17;2.95;;;;;;;16.52;100.00;98309.75;1667983;84;28073;-87
2022/07/29 02:03:41;;;;;;;6.05;3.08;;;;;;;16.51;100.00;98308.09;1659596;84;28107;-84
2022/07/29 02:06:09;;;;;;;5.22;2.92;;;;;;;16.52;100.00;98305.80;1663991;84;28097;-88
2022/07/29 02:08:38;;;;;;;5.87;3.42;;;;;;;16.62;100.00;98306.59;1666358;84;28003;-88
2022/07/29 02:11:07;;;;;;;4.10;3.12;;;;;;;16.76;100.00;98307.41;1636093;85;28084;-87
2022/07/29 02:13:35;;;;;;;4.35;3.42;;;;;;;16.84;100.00;98304.02;1675378;84;28004;-84
2022/07/29 02:16:04;;;;;;;5.33;3.58;;;;;;;17.03;100.00;98306.52;1677350;84;28064;-87
2022/07/29 02:18:32;;;;;;;6.83;3.70;;;;;;;17.04;100.00;98304.22;1691550;83;28159;-84
2022/07/29 02:21:03;;;;;;;4.22;3.10;;;;;;;17.15;100.00;98301.34;1660776;84;28119;-86
2022/07/29 02:23:32;;;;;;;5.60;3.40;;;;;;;17.39;100.00;98294.13;1692394;83;28133;-87
2022/07/29 02:25:59;;;;;;;5.10;3.58;;;;;;;17.39;100.00;98294.13;1691046;83;28083;-88
2022/07/29 02:28:29;;;;;;;5.90;3.55;;;;;;;17.45;100.00;98294.34;1681942;85;28121;-86
2022/07/29 02:31:02;;;;;;;6.03;3.52;;;;;;;17.34;100.00;98291.11;1662177;84;28117;-87
2022/07/29 02:33:31;;;;;;;6.78;3.95;;;;;;;17.33;100.00;98296.89;1692149;83;28294;-85
2022/07/29 02:36:07;;;;;;;3.85;3.30;;;;;;;17.42;100.00;98295.96;1692806;83;28218;-87
2022/07/29 02:38:51;;;;;;;5.37;3.47;;;;;;;17.33;100.00;98292.92;1663300;84;28110;-88
2022/07/29 02:41:29;;;;;;;4.20;3.37;;;;;;;17.26;100.00;98294.50;1693475;83;28194;-89
2022/07/29 02:44:05;;;;;;;4.58;3.95;;;;;;;17.33;100.00;98289.44;1692987;83;28204;-85
2022/07/29 02:46:41;;;;;;;4.97;3.65;;;;;;;17.43;100.00;98290.18;1661732;84;28149;-87
2022/07/29 02:49:11;;;;;;;4.85;3.45;;;;;;;17.48;100.00;98290.55;1662713;84;28102;-88
2022/07/29 02:51:45;;;;;;;5.10;3.83;;;;;;;17.48;100.00;98286.58;1661773;84;28110;-88
2022/07/29 02:54:30;;;;;;;5.83;3.98;;;;;;;17.47;100.00;98286.23;1662203;84;28158;-88
2022/07/29 02:57:00;;;;;;;7.45;4.00;;;;;;;17.37;100.00;98288.14;1690686;83;28186;-87
2022/07/29 02:59:32;;;;;;;6.92;3.83;;;;;;;17.07;100.00;98282.26;1691652;83;28194;-87
2022/07/29 03:02:00;;;;;;;4.67;4.15;;;;;;;16.90;100.00;98278.31;1689942;83;28097;-88
2022/07/29 03:04:30;;;;;;;4.42;3.47;;;;;;;16.83;100.00;98282.05;1662324;84;28220;-86
2022/07/29 03:06:59;;;;;;;4.95;3.52;;;;;;;16.81;100.00;98287.13;1690697;83;28162;-88
2022/07/29 03:09:26;;;;;;;5.67;3.80;;;;;;;16.91;100.00;98282.11;1690883;83;28024;-84
2022/07/29 03:11:54;;;;;;;5.45;4.10;;;;;;;17.06;100.00;98277.15;1690719;82;28089;-84
2022/07/29 03:14:22;;;;;;;5.12;3.92;;;;;;;17.18;100.00;98281.72;1690746;82;28089;-84
2022/07/29 03:16:49;;;;;;;5.35;3.67;;;;;;;17.11;100.00;98280.16;1681297;83;28129;-85
2022/07/29 03:19:21;;;;;;;5.65;3.67;;;;;;;16.95;100.00;98283.49;1656204;84;28181;-87
2022/07/29 03:21:49;;;;;;;9.73;4.35;;;;;;;16.84;100.00;98274.46;1657182;84;28111;-87
2022/07/29 03:24:24;;;;;;;4.75;3.80;;;;;;;16.77;100.00;98270.75;1656950;86;28181;-86
2022/07/29 03:26:50;;;;;;;6.47;3.70;;;;;;;16.73;100.00;98268.91;1657728;84;28228;-89
2022/07/29 03:29:16;;;;;;;4.35;3.95;;;;;;;16.69;100.00;98277.28;1621985;85;28141;-86
2022/07/29 03:31:43;;;;;;;3.98;3.45;;;;;;;16.77;100.00;98277.84;1660720;84;28132;-84
2022/07/29 03:34:11;;;;;;;6.40;3.83;;;;;;;16.80;100.00;98273.08;1659067;86;27998;-86
2022/07/29 03:36:37;;;;;;;6.22;4.00;;;;;;;16.90;100.00;98277.83;1629779;86;28109;-86
2022/07/29 03:39:05;;;;;;;4.33;3.42;;;;;;;16.81;100.00;98278.70;1629897;86;28136;-83
2022/07/29 03:41:33;;;;;;;4.20;3.30;;;;;;;16.61;100.00;98272.73;1631103;86;28034;-84
2022/07/29 03:44:09;;;;;;;4.40;2.90;;;;;;;16.48;100.00;98272.70;1656201;84;28170;-84
2022/07/29 03:46:37;;;;;;;6.30;3.35;;;;;;;16.36;100.00;98268.13;1657681;84;28017;-84
2022/07/29 03:49:08;;;;;;;4.15;3.10;;;;;;;16.26;100.00;98262.05;1656416;84;28080;-85
2022/07/29 03:51:35;;;;;;;5.97;3.65;;;;;;;16.19;100.00;98261.83;1655097;85;28033;-84
2022/07/29 03:54:03;;;;;;;6.03;3.47;;;;;;;16.18;100.00;98260.64;1656362;84;28172;-84
2022/07/29 03:56:31;;;;;;;4.97;3.52;;;;;;;16.16;100.00;98268.70;1653103;86;28076;-84
2022/07/29 03:58:59;;;;;;;6.35;3.65;;;;;;;16.22;100.00;98277.36;1622428;86;28161;-84
2022/07/29 04:01:29;;;;;;;4.05;3.02;;;;;;;16.46;100.00;98289.20;1653526;84;28076;-89
2022/07/29 04:03:59;;;;;;;7.42;3.72;;;;;;;16.67;100.00;98304.34;1646466;84;28220;-89
2022/07/29 04:06:25;;;;;;;4.12;3.45;;;;;;;16.73;100.00;98307.71;1651805;85;28048;-89
2022/07/29 04:08:52;;;;;;;5.30;3.90;;;;;;;16.80;100.00;98305.31;1659604;84;28113;-88
2022/07/29 04:11:19;;;;;;;5.62;3.72;;;;;;;16.82;100.00;98302.01;1658768;84;28157;-84
2022/07/29 04:13:45;;;;;;;7.78;4.53;;;;;;;16.70;100.00;98293.45;1659568;84;28036;-84
2022/07/29 04:16:15;;;;;;;5.75;4.00;;;;;;;16.66;100.00;98295.58;1660109;84;28136;-84
2022/07/29 04:18:41;;;;;;;5.03;3.87;;;;;;;16.64;100.00;98294.05;1639996;86;28078;-88
2022/07/29 04:21:07;;;;;;;6.35;4.25;;;;;;;16.73;100.00;98295.33;1664424;84;28434;-85
2022/07/29 04:23:33;;;;;;;5.72;4.25;;;;;;;17.01;100.00;98284.70;1646724;86;28167;-85
2022/07/29 04:26:00;;;;;;;8.65;4.53;;;;;;;17.22;100.00;98286.55;1648053;84;28146;-85
2022/07/29 04:28:27;;;;;;;5.97;3.75;;;;;;;17.24;100.00;98281.11;1651898;84;28135;-88
2022/07/29 04:30:53;;;;;;;6.22;4.25;;;;;;;17.24;100.00;98287.20;1655481;84;28158;-89
2022/07/29 04:33:19;;;;;;;5.80;4.65;;;;;;;17.25;100.00;98282.26;1653118;84;28178;-89
2022/07/29 04:35:46;;;;;;;5.50;4.75;;;;;;;17.27;100.00;98284.27;1647063;84;28077;-86
2022/07/29 04:38:12;;;;;;;5.72;3.67;;;;;;;17.32;100.00;98278.52;1649425;84;28106;-87
2022/07/29 04:40:38;;;;;;;4.80;3.50;;;;;;;17.32;100.00;98277.19;1644565;84;28107;-85
2022/07/29 04:43:06;;;;;;;4.95;3.92;;;;;;;17.34;100.00;98273.42;1653426;84;28094;-85
2022/07/29 04:45:32;;;;;;;5.55;3.75;;;;;;;17.33;100.00;98269.11;1647915;84;28071;-88
2022/07/29 04:47:59;;;;;;;8.30;4.25;;;;;;;17.33;100.00;98275.73;1652462;84;28056;-86
2022/07/29 04:50:25;;;;;;;5.42;4.42;;;;;;;17.38;100.00;98271.30;1650947;84;28068;-86
2022/07/29 04:52:51;;;;;;;6.42;4.08;;;;;;;17.44;100.00;98277.30;1650703;84;28147;-87
2022/07/29 04:55:17;;;;;;;5.15;3.52;;;;;;;17.48;100.00;98279.97;1650182;84;28111;-86
2022/07/29 04:57:46;;;;;;;4.85;3.85;;;;;;;17.53;100.00;98285.63;1651019;86;28165;-87
2022/07/29 05:00:22;;;;;;;5.62;3.50;;;;;;;17.60;100.00;98284.06;1655655;84;28048;-90
2022/07/29 05:02:49;;;;;;;5.03;3.70;;;;;;;17.65;100.00;98281.78;1651533;84;28089;-88
2022/07/29 05:05:16;;;;;;;4.65;3.67;;;;;;;17.74;100.00;98287.45;1647752;84;28107;-89
2022/07/29 05:07:42;;;;;;;4.97;3.70;;;;;;;17.76;100.00;98277.55;1652201;84;28115;-89
2022/07/29 05:10:09;;;;;;;4.62;3.30;;;;;;;17.89;100.00;98287.73;1653745;84;28497;-85
2022/07/29 05:12:35;;;;;;;5.95;3.70;;;;;;;17.95;100.00;98286.59;1656806;84;28087;-85
2022/07/29 05:15:02;;;;;;;3.87;3.45;;;;;;;18.02;100.00;98285.96;1650293;84;28145;-85
2022/07/29 05:17:28;;;;;;;6.37;3.90;;;;;;;18.09;100.00;98288.33;1647358;84;28230;-85
2022/07/29 05:20:01;;;;;;;4.92;3.55;;;;;;;18.16;100.00;98292.02;1656795;84;28101;-86
2022/07/29 05:22:27;;;;;;;5.92;3.87;;;;;;;18.19;100.00;98288.54;1650604;84;28150;-84
2022/07/29 05:24:56;;;;;;;4.35;3.50;;;;;;;18.22;100.00;98290.06;1649416;84;28126;-90
2022/07/29 05:27:29;;;;;;;5.62;3.60;;;;;;;18.20;100.00;98288.05;1658216;84;28015;-89
2022/07/29 05:29:55;;;;;;;3.87;3.47;;;;;;;18.16;100.00;98288.03;1648266;84;28100;-89
2022/07/29 05:32:21;;;;;;;4.83;3.42;;;;;;;18.13;100.00;98281.72;1649875;84;28010;-85
2022/07/29 05:34:56;;;;;;;5.80;3.70;;;;;;;18.15;100.00;98281.91;1658350;84;28062;-87
2022/07/29 05:37:22;;;;;;;5.42;3.55;;;;;;;18.21;100.00;98281.28;1655888;84;28087;-87
2022/07/29 05:39:48;;;;;;;5.35;3.22;;;;;;;18.31;100.00;98282.47;1660529;83;28115;-89
2022/07/29 05:42:14;;;;;;;6.53;3.50;;;;;;;18.36;100.00;98277.03;1658819;84;28038;-88
2022/07/29 05:44:42;;;;;;;4.62;3.30;;;;;;;18.46;100.00;98278.70;1657840;84;35450;-87
2022/07/29 05:47:08;;;;;;;8.20;3.47;;;;;;;18.51;100.00;98279.05;1656984;84;28069;-89
2022/07/29 05:49:34;;;;;;;6.08;3.87;;;;;;;18.57;100.00;98281.93;1656953;84;28038;-85
2022/07/29 05:52:01;;;;;;;5.58;3.92;;;;;;;18.63;100.00;98285.27;1657047;84;28155;-89
2022/07/29 05:54:27;;;;;;;5.95;3.60;;;;;;;18.66;100.00;98284.93;1657086;84;28110;-88
2022/07/29 05:56:54;;;;;;;4.72;3.80;;;;;;;18.65;100.00;98289.92;1656772;84;28056;-85
2022/07/29 05:59:20;;;;;;;4.67;3.60;;;;;;;18.69;100.00;98289.92;1656836;84;28105;-85
2022/07/29 06:01:48;;;;;;;4.62;3.33;;;;;;;18.73;100.00;98293.91;1655129;84;28167;-85
2022/07/29 06:04:21;;;;;;;7.65;3.60;;;;;;;18.81;100.00;98290.45;1657849;84;28119;-84
2022/07/29 06:06:48;;;;;;;4.17;3.37;;;;;;;18.87;100.00;98289.81;1660258;84;28111;-84
2022/07/29 06:09:14;;;;;;;4.40;3.35;;;;;;;18.96;100.00;98289.31;1656523;84;28221;-86
2022/07/29 06:11:42;;;;;;;5.35;3.70;;;;;;;19.04;100.00;98296.77;1654434;84;28083;-87
2022/07/29 06:14:17;;;;;;;7.17;4.05;;;;;;;19.10;100.00;98294.80;1656959;84;28079;-87
2022/07/29 06:16:43;;;;;;;5.62;4.08;;;;;;;19.15;100.00;98288.99;1623090;86;28183;-86
2022/07/29 06:19:16;;;;;;;6.55;3.55;;;;;;;19.20;100.00;98290.69;1662327;84;28148;-87
2022/07/29 06:21:49;;;;;;;6.97;3.65;;;;;;;19.30;100.00;98299.31;1663494;84;28010;-85
2022/07/29 06:24:16;;;;;;;5.80;3.92;;;;;;;19.36;100.00;98303.13;1661600;84;28083;-85
2022/07/29 06:26:42;;;;;;;6.10;3.10;;;;;;;19.43;100.00;98297.47;1657771;84;28073;-88
2022/07/29 06:29:12;;;;;;;5.40;3.85;;;;;;;19.51;100.00;98303.66;1664780;84;28100;-85
2022/07/29 06:31:39;;;;;;;6.17;3.85;;;;;;;19.63;100.00;98303.66;1662178;84;28108;-85
2022/07/29 06:34:05;;;;;;;5.60;3.60;;;;;;;19.76;100.00;98311.09;1664801;84;28014;-85
2022/07/29 06:36:35;;;;;;;7.70;3.50;;;;;;;19.84;100.00;98303.62;1664409;84;28223;-89
2022/07/29 06:39:03;;;;;;;4.97;3.75;;;;;;;19.90;100.00;98298.47;1654691;83;28176;-85
2022/07/29 06:41:29;;;;;;;5.08;3.83;;;;;;;19.98;100.00;98298.44;1665805;84;28113;-85
2022/07/29 06:43:56;;;;;;;5.25;3.65;;;;;;;20.12;100.00;98297.41;1635445;85;28097;-85
2022/07/29 06:46:22;;;;;;;6.05;3.42;;;;;;;20.32;100.00;98300.03;1668047;84;28112;-84
2022/07/29 06:48:49;;;;;;;5.05;3.30;;;;;;;20.40;100.00;98304.00;1669204;84;28088;-84
2022/07/29 06:51:16;;;;;;;4.92;3.20;;;;;;;20.50;100.00;98301.96;1666145;85;28373;-84
2022/07/29 06:53:42;;;;;;;5.70;3.20;;;;;;;20.55;100.00;98304.09;1668447;83;28246;-84
2022/07/29 06:56:13;;;;;;;7.53;3.75;;;;;;;20.53;100.00;98304.76;1666875;84;24746;-90
2022/07/29 06:58:41;;;;;;;5.45;3.60;;;;;;;20.52;100.00;98305.75;1641051;85;28097;-88
2022/07/29 07:01:07;;;;;;;6.65;3.60;;;;;;;20.55;100.00;98312.08;1640761;85;28144;-87
2022/07/29 07:03:33;;;;;;;3.87;3.47;;;;;;;20.62;100.00;98310.39;1638800;85;28043;-87
2022/07/29 07:06:00;;;;;;;6.33;3.83;;;;;;;20.70;100.00;98301.02;1641130;85;28283;-83
2022/07/29 07:08:29;;;;;;;4.22;3.47;;;;;;;20.78;100.00;98304.45;1648141;85;28137;-87
2022/07/29 07:10:56;;;;;;;5.70;3.30;;;;;;;20.77;100.00;98308.14;1666801;83;28094;-88
2022/07/29 07:13:24;;;;;;;4.53;3.25;;;;;;;20.79;100.00;98305.29;1657125;84;28193;-90
2022/07/29 07:15:51;;;;;;;8.18;3.37;;;;;;;20.89;100.00;98307.25;1659296;84;28116;-85
2022/07/29 07:18:18;;;;;;;4.83;3.47;;;;;;;20.94;100.00;98312.88;1660153;84;28119;-89
2022/07/29 07:20:45;;;;;;;4.35;3.80;;;;;;;20.99;100.00;98311.84;1633315;86;28070;-87
2022/07/29 07:23:12;;;;;;;4.75;3.20;;;;;;;21.09;100.00;98311.61;1637863;85;28130;-87
2022/07/29 07:25:38;;;;;;;8.03;3.35;;;;;;;21.22;100.00;98309.23;1659551;84;28063;-87
2022/07/29 07:28:10;;;;;;;4.05;3.15;;;;;;;21.37;100.00;98312.77;1660325;84;43051;-89
2022/07/29 07:30:42;;;;;;;4.40;3.33;;;;;;;21.43;100.00;98308.57;1661069;84;28148;-84
2022/07/29 07:33:09;;;;;;;4.65;3.60;;;;;;;21.46;100.00;98318.35;1658812;85;28114;-89
2022/07/29 07:35:44;;;;;;;5.45;3.77;;;;;;;21.41;100.00;98314.56;1659167;84;28196;-88
2022/07/29 07:38:10;;;;;;;3.60;3.30;;;;;;;21.40;100.00;98316.90;1659275;84;28103;-87
2022/07/29 07:40:36;;;;;;;6.25;3.50;;;;;;;21.45;100.00;98315.36;1658713;84;28156;-88
2022/07/29 07:43:03;;;;;;;5.17;3.12;;;;;;;21.56;100.00;98322.09;1659300;84;28150;-87
2022/07/29 07:45:29;;;;;;;6.35;3.80;;;;;;;21.67;100.00;98312.34;1657431;84;28110;-86
2022/07/29 07:47:58;;;;;;;6.12;3.52;;;;;;;21.79;100.00;98324.23;1658403;85;28166;-88
2022/07/29 07:50:24;;;;;;;5.30;3.33;;;;;;;21.80;100.00;98321.89;1658465;84;28086;-89
2022/07/29 07:52:53;;;;;;;5.90;3.50;;;;;;;21.82;100.00;98322.52;1659146;84;28055;-89
2022/07/29 07:55:20;;;;;;;6.70;3.50;;;;;;;21.82;100.00;98307.87;1660276;85;28130;-89
2022/07/29 07:57:54;;;;;;;6.10;3.47;;;;;;;21.94;100.00;98321.58;1659240;84;28087;-89
2022/07/29 08:00:21;;;;;;;5.35;3.50;;;;;;;21.91;100.00;98324.13;1658991;84;28059;-85
2022/07/29 08:02:53;;;;;;;7.55;3.55;;;;;;;22.03;100.00;98324.04;1658903;84;28099;-85
2022/07/29 08:05:20;;;;;;;7.60;4.00;;;;;;;22.18;100.00;98324.04;1657644;84;28059;-89
2022/07/29 08:07:47;;;;;;;6.62;4.15;;;;;;;22.15;100.00;98318.26;1660270;84;28148;-90
2022/07/29 08:10:51;;;;;;;6.00;3.50;;;;;;;22.09;100.00;98315.28;1659107;85;28104;-85
2022/07/29 08:12:45;;;;;;;4.85;3.35;;;;;;;22.11;100.00;98312.45;1657385;84;28160;-87
2022/07/29 08:15:13;;;;;;;4.87;3.30;;;;;;;22.13;100.00;98308.27;1659362;84;28055;-90
2022/07/29 08:17:41;;;;;;;6.75;3.70;;;;;;;22.21;100.00;98310.83;1646958;85;28200;-85
2022/07/29 08:20:09;;;;;;;5.22;3.33;;;;;;;22.28;100.00;98309.92;1658609;83;28181;-85
2022/07/29 08:22:35;;;;;;;6.42;3.95;;;;;;;22.38;100.00;98309.64;1622557;86;28130;-85
2022/07/29 08:25:03;;;;;;;6.37;3.50;;;;;;;22.45;100.00;98311.90;1632766;86;28015;-84
2022/07/29 08:27:40;;;;;;;5.47;2.83;;;;;;;22.54;100.00;98317.45;1625146;86;28186;-85
2022/07/29 08:30:07;;;;;;;5.58;3.02;;;;;;;22.64;100.00;98311.31;1634283;85;28074;-85
2022/07/29 08:32:35;;;;;;;4.47;3.62;;;;;;;22.70;100.00;98306.56;1658896;84;28188;-85
2022/07/29 08:35:02;;;;;;;4.42;3.35;;;;;;;22.74;100.00;98295.06;1658793;84;28070;-85
2022/07/29 08:37:28;;;;;;;6.12;3.65;;;;;;;22.86;100.00;98307.71;1659037;84;28079;-86
2022/07/29 08:39:54;;;;;;;4.30;3.15;;;;;;;22.97;100.00;98306.90;1659040;84;28090;-87
2022/07/29 08:42:21;;;;;;;4.95;3.33;;;;;;;23.02;100.00;98303.19;1658184;84;28117;-87
2022/07/29 08:44:48;;;;;;;5.00;3.27;;;;;;;23.05;100.00;98306.30;1658849;84;28137;-87
2022/07/29 08:47:19;;;;;;;6.08;3.42;;;;;;;23.15;100.00;98304.64;1657034;84;28060;-89
2022/07/29 08:49:44;;;;;;;4.25;2.90;;;;;;;23.29;100.00;98297.89;1657640;83;28091;-86
2022/07/29 08:52:12;;;;;;;5.97;3.27;;;;;;;23.44;100.00;98301.02;1659442;84;28156;-89
2022/07/29 08:54:44;;;;;;;5.62;3.62;;;;;;;23.54;100.00;98301.05;1659300;84;28114;-85
2022/07/29 08:57:15;;;;;;;4.92;3.40;;;;;;;23.71;100.00;98309.61;1659379;84;28163;-85
2022/07/29 08:59:50;;;;;;;5.37;3.72;;;;;;;23.88;100.00;98314.17;1659479;84;28083;-85
2022/07/29 09:02:20;;;;;;;4.33;3.65;;;;;;;23.96;100.00;98313.50;1658772;84;28010;-85
2022/07/29 09:04:47;;;;;;;6.33;2.90;;;;;;;24.05;100.00;98310.19;1659906;84;37572;-89
2022/07/29 09:07:18;;;;;;;5.37;3.30;;;;;;;24.20;100.00;98310.09;1659108;84;28029;-90
2022/07/29 09:09:45;;;;;;;9.25;3.47;;;;;;;24.22;100.00;98304.84;1660566;84;28068;-87
2022/07/29 09:12:12;;;;;;;4.95;3.80;;;;;;;24.28;100.00;98305.91;1658537;84;28162;-87
2022/07/29 09:14:39;;;;;;;;;;;;;;;24.32;100.00;98304.52;1661244;85;28087;-88
2022/07/29 09:17:05;;;;;;;;;;;;;;;24.35;100.00;98301.43;1664452;83;26078;-85
2022/07/29 09:19:35;;;;;;;6.53;3.40;;;;;;;24.35;100.00;98300.92;1667682;84;24493;-85
2022/07/29 09:22:05;;;;;;;5.30;3.37;;;;;;;24.37;100.00;98300.73;1671499;85;28024;-85
2022/07/29 09:24:38;;;;;;;4.92;3.55;;;;;;;24.37;100.00;98300.22;1674370;84;28056;-85
2022/07/29 09:27:13;;;;;;;6.92;3.50;;;;;;;24.47;100.00;98301.19;1680589;83;28071;-85
2022/07/29 09:29:39;;;;;;;3.20;2.90;;;;;;;24.55;100.00;98288.97;1681396;83;28104;-85
2022/07/29 09:32:09;;;;;;;3.72;3.08;;;;;;;24.62;100.00;98293.02;1684448;83;28021;-87
2022/07/29 09:34:35;;;;;;;5.03;3.20;;;;;;;24.70;100.00;98291.52;1676800;83;28040;-89
2022/07/29 09:37:02;;;;;;;3.72;3.00;;;;;;;24.75;100.00;98285.87;1639738;83;28452;-86
2022/07/29 09:39:32;;;;;;;3.72;3.20;;;;;;;24.79;100.00;98291.13;1647924;84;28099;-89
2022/07/29 09:42:01;;;;;;;4.62;3.83;;;;;;;24.85;100.00;98283.64;1685186;83;28152;-87
2022/07/29 09:44:46;;;;;;;4.85;3.42;;;;;;;24.85;100.00;98280.97;1652598;84;28115;-90
2022/07/29 09:47:19;;;;;;;4.33;3.22;;;;;;;24.89;100.00;98274.20;1675211;83;28075;-89
2022/07/29 09:49:57;;;;;;;4.45;3.20;;;;;;;24.91;100.00;98271.33;1674062;84;28094;-86
2022/07/29 09:52:24;;;;;;;4.42;3.35;;;;;;;24.95;100.00;98276.59;1674610;83;28573;-85
2022/07/29 09:54:51;;;;;;;5.72;3.42;;;;;;;25.03;100.00;98263.54;1676341;85;28054;-86
2022/07/29 09:57:26;;;;;;;4.03;3.08;;;;;;;25.16;100.00;98263.03;1675544;83;28108;-86
2022/07/29 10:00:08;;;;;;;4.87;3.30;;;;;;;25.26;100.00;98260.77;1674505;83;28087;-86
2022/07/29 10:02:36;;;;;;;4.92;3.17;;;;;;;25.40;100.00;98262.45;1674947;83;28071;-86
2022/07/29 10:05:06;;;;;;;6.80;3.70;;;;;;;25.46;100.00;98260.81;1676718;83;28011;-87
2022/07/29 10:07:49;;;;;;;7.05;3.08;;;;;;;25.54;100.00;98253.05;1675945;83;28007;-90
2022/07/29 10:10:23;;;;;;;;;;;;;;;25.71;100.00;98242.26;1680840;83;28075;-89
2022/07/29 10:12:58;;;;;;;3.15;2.85;;;;;;;25.82;100.00;98244.30;1675666;83;20280;-86
2022/07/29 10:15:27;;;;;;;5.97;3.17;;;;;;;25.85;100.00;98246.59;1675666;83;28038;-86
2022/07/29 10:18:04;;;;;;;5.78;3.12;;;;;;;25.93;100.00;98239.65;1678079;83;28090;-87
2022/07/29 10:20:30;;;;;;;6.15;3.33;;;;;;;26.09;100.00;98247.76;1646224;83;28090;-86
2022/07/29 10:22:56;;;;;;;4.03;3.10;;;;;;;26.17;100.00;98248.37;1633656;85;28139;-86
2022/07/29 10:25:25;;;;;;;5.05;2.87;;;;;;;26.22;100.00;98247.25;1638559;85;28084;-87
2022/07/29 10:27:53;;;;;;;8.55;3.47;;;;;;;26.20;99.36;98246.59;1664207;84;28098;-87
2022/07/29 10:30:32;;;;;;;3.52;2.90;;;;;;;26.24;98.77;98244.34;1639841;85;28260;-87
2022/07/29 10:33:29;;;;;;;6.03;2.95;;;;;;;26.31;98.31;98242.47;1665508;83;28075;-86
2022/07/29 10:36:04;;;;;;;5.05;3.33;;;;;;;26.36;97.60;98235.94;1664556;83;28098;-87
2022/07/29 10:38:49;;;;;;;5.33;3.05;;;;;;;26.44;96.72;98238.91;1666987;83;28076;-87
2022/07/29 10:41:38;;;;;;;4.08;2.60;;;;;;;26.46;95.90;98239.51;1633298;84;28084;-87
2022/07/29 10:44:10;;;;;;;3.15;2.77;;;;;;;26.46;95.06;98238.16;1645728;85;28097;-87
2022/07/29 10:46:47;;;;;;;9.45;4.58;;;;;;;26.48;94.20;98240.95;1667997;84;28138;-87
2022/07/29 10:49:43;;;;;;;341.85;76.28;;;;;;;26.57;93.66;98242.87;1636424;85;28159;-89
2022/07/29 10:52:10;;;;;;;25.23;8.88;;;;;;;26.59;93.38;98240.80;1651400;83;28093;-90
2022/07/29 10:54:53;;;;;;;9.63;4.62;;;;;;;26.70;93.01;98244.67;1632698;85;28109;-87
2022/07/29 10:57:26;;;;;;;5.00;3.42;;;;;;;26.69;92.07;98247.05;1637500;85;28104;-86
2022/07/29 11:00:18;;;;;;;5.15;2.90;;;;;;;26.62;90.84;98243.88;1608582;87;28111;-86
2022/07/29 11:02:50;;;;;;;4.85;3.30;;;;;;;26.64;90.39;98243.16;1638023;84;28133;-85
2022/07/29 11:05:19;;;;;;;5.30;3.47;;;;;;;26.65;89.72;98235.92;1605915;87;28192;-86
2022/07/29 11:08:03;;;;;;;;;;;;;;;26.74;89.34;98241.86;1642912;85;28082;-86
2022/07/29 11:10:29;;;;;;;3.37;2.60;;;;;;;26.74;88.29;98241.34;1632947;85;22089;-86
2022/07/29 11:12:55;;;;;;;8.98;3.42;;;;;;;26.79;87.83;98241.52;1637549;85;28099;-85
2022/07/29 11:15:26;;;;;;;6.55;3.22;;;;;;;26.82;87.42;98250.50;1667061;84;28066;-85
2022/07/29 11:17:57;;;;;;;;;;;;;;;26.89;87.20;98249.99;1644893;85;28091;-87
2022/07/29 11:20:44;;;;;;;4.87;2.93;;;;;;;26.88;86.34;98236.25;1662617;83;24737;-87
2022/07/29 11:23:28;;;;;;;4.62;3.15;;;;;;;26.90;85.87;98241.38;1648698;85;28099;-86
2022/07/29 11:26:21;;;;;;;3.27;2.98;;;;;;;26.87;85.16;98237.28;1669418;83;28101;-86
2022/07/29 11:29:07;;;;;;;5.22;2.83;;;;;;;26.84;84.24;98233.64;1628435;84;28153;-91
2022/07/29 11:31:37;;;;;;;3.55;3.10;;;;;;;26.85;83.91;98239.84;1659323;84;28030;-86
2022/07/29 11:34:25;;;;;;;7.80;3.05;;;;;;;26.94;84.14;98240.77;1647359;84;28100;-85
2022/07/29 11:37:11;;;;;;;5.45;3.20;;;;;;;27.02;83.82;98231.09;1653097;84;28114;-85
2022/07/29 11:39:41;;;;;;;4.05;3.08;;;;;;;27.14;83.58;98230.39;1650232;84;28104;-85
2022/07/29 11:42:26;;;;;;;4.20;2.45;;;;;;;27.30;83.60;98233.89;1654887;84;28524;-85
2022/07/29 11:45:15;;;;;;;5.37;2.77;;;;;;;27.44;83.14;98227.35;1650152;84;28075;-85
2022/07/29 11:47:58;;;;;;;;;;;;;;;;;;;;;